KHLR/HLR METAR and TAF weather

Enter ICAO airport designator
Station Type Date Time Source
KHLR METAR 2021/04/14 19:58 UTC NOAA

KHLR 141958Z AUTO 05009KT 10SM FEW270 25/14 A2996 RMK AO2 SLP136 T02490138


Station Type Date Time Source
KHLR Decoded METAR 2021/04/14 19:58 UTC NOAA

Fort Hood, Hood AAF Ft Hood, TX, United States (KHLR) 31-08N 097-42W
Apr 14, 2021 - 03:58 PM EDT / 2021.04.14 1958 UTC
Wind: from the NE (050 degrees) at 10 MPH (9 KT):0
Visibility: 10 mile(s):0
Sky conditions: mostly clear
Temperature: 76.8 F (24.9 C)
Dew Point: 56.8 F (13.8 C)
Relative Humidity: 50%
Pressure (altimeter): 29.96 in. Hg (1014 hPa)
ob: KHLR 141958Z AUTO 05009KT 10SM FEW270 25/14 A2996 RMK AO2 SLP136 T02490138
cycle: 20

Station Type Date Time Source
KHLR TAF UTC NOAA

Error!

Example: see airport list